Time;durP1;ratioP1;P1;durP2;ratioP2;P2;SDS_P1;SDS_P2;PMS_P1;PMS_P2;Temp;Humidity;BMP_temperature;BMP_pressure;BME280_temperature;BME280_humidity;BME280_pressure;Samples;Min_cycle;Max_cycle;Signal;HPM_P1;HPM_P2
2023/09/29 00:02:05;;;;;;;;;;;;;;;-140.72;100.00;52739.88;4988374;28;19922;-70
2023/09/29 00:04:30;;;;;;;;;;;;;;;-140.72;100.00;52703.34;4987515;28;19925;-70
2023/09/29 00:06:56;;;;;;;;;;;;;;;-140.72;100.00;52660.75;4987724;28;19923;-70
2023/09/29 00:09:22;;;;;;;;;;;;;;;-140.72;100.00;52717.56;4989942;28;20064;-70
2023/09/29 00:11:48;;;;;;;;;;;;;;;-140.72;100.00;52711.47;4985917;28;19949;-69
2023/09/29 00:14:13;;;;;;;;;;;;;;;-140.72;100.00;52731.75;4990920;28;20023;-69
2023/09/29 00:16:39;;;;;;;;;;;;;;;-140.72;100.00;52687.13;4995509;28;20384;-69
2023/09/29 00:19:04;;;;;;;;;;;;;;;-140.72;100.00;52685.09;4986739;28;19988;-70
2023/09/29 00:21:29;;;;;;;;;;;;;;;-140.72;100.00;52674.94;4989287;28;20372;-70
2023/09/29 00:23:55;;;;;;;;;;;;;;;-140.72;100.00;52695.25;4992609;28;19922;-70
2023/09/29 00:26:20;;;;;;;;;;;;;;;-140.72;100.00;52711.47;4988126;28;19932;-70
2023/09/29 00:28:45;;;;;;;;;;;;;;;-140.72;100.00;52701.31;4991106;28;19921;-70
2023/09/29 00:31:11;;;;;;;;;;;;;;;-140.72;100.00;52685.09;4993365;28;20371;-70
2023/09/29 00:33:36;;;;;;;;;;;;;;;-140.72;100.00;52687.13;4993234;28;19922;-69
2023/09/29 00:36:01;;;;;;;;;;;;;;;-140.72;100.00;52713.50;4987971;28;20008;-69
2023/09/29 00:38:26;;;;;;;;;;;;;;;-140.72;100.00;52705.38;4992593;28;20316;-71
2023/09/29 00:40:51;;;;;;;;;;;;;;;-140.72;100.00;52699.31;4993310;28;19926;-71
2023/09/29 00:43:17;;;;;;;;;;;;;;;-140.72;100.00;52685.09;4993823;28;19921;-71
2023/09/29 00:45:43;;;;;;;;;;;;;;;-140.72;100.00;52715.53;4989971;28;19933;-71
2023/09/29 00:48:10;;;;;;;;;;;;;;;-140.72;100.00;52713.50;4986506;28;19926;-70
2023/09/29 00:50:37;;;;;;;;;;;;;;;-140.72;100.00;52695.25;4991126;28;19930;-71
2023/09/29 00:53:09;;;;;;;;;;;;;;;-140.72;100.00;52707.41;4991606;28;19979;-70
2023/09/29 00:55:36;;;;;;;;;;;;;;;-140.72;100.00;52729.75;4991457;28;19953;-69
2023/09/29 00:58:02;;;;;;;;;;;;;;;-140.72;100.00;52719.59;4990624;28;20374;-70
2023/09/29 01:02:54;;;;;;;;;;;;;;;-140.72;100.00;52707.41;4991571;28;19992;-70
2023/09/29 01:05:19;;;;;;;;;;;;;;;-140.72;100.00;52727.72;4990935;28;20423;-70
2023/09/29 01:07:46;;;;;;;;;;;;;;;-140.72;100.00;52691.19;4991916;28;19976;-70
2023/09/29 01:10:11;;;;;;;;;;;;;;;-140.72;100.00;52703.34;4991449;28;20060;-70
2023/09/29 01:12:37;;;;;;;;;;;;;;;-140.72;100.00;52717.56;5006116;28;20005;-70
2023/09/29 01:15:03;;;;;;;;;;;;;;;-140.72;100.00;52723.66;4989595;28;19957;-70
2023/09/29 01:17:28;;;;;;;;;;;;;;;-140.72;100.00;52699.31;4988872;28;20327;-70
2023/09/29 01:19:54;;;;;;;;;;;;;;;-140.72;100.00;52697.28;4990722;28;19930;-70
2023/09/29 01:22:19;;;;;;;;;;;;;;;-140.72;100.00;52711.47;4990889;28;20005;-70
2023/09/29 01:24:45;;;;;;;;;;;;;;;-140.72;100.00;52679.00;4992457;28;19922;-69
2023/09/29 01:27:10;;;;;;;;;;;;;;;-140.72;100.00;52687.13;4988432;28;19980;-70
2023/09/29 01:29:36;;;;;;;;;;;;;;;-140.72;100.00;52756.13;4992738;28;19922;-70
2023/09/29 01:32:01;;;;;;;;;;;;;;;-140.72;100.00;52711.47;4988469;28;19922;-70
2023/09/29 01:34:30;;;;;;;;;;;;;;;-140.72;100.00;52691.19;4994519;28;20020;-70
2023/09/29 01:36:57;;;;;;;;;;;;;;;-140.72;100.00;52697.28;4993845;28;19922;-70
2023/09/29 01:39:22;;;;;;;;;;;;;;;-140.72;100.00;52733.78;4991243;28;19929;-70
2023/09/29 01:41:47;;;;;;;;;;;;;;;-140.72;100.00;52733.78;4991636;28;19937;-70
2023/09/29 01:44:13;;;;;;;;;;;;;;;-140.72;100.00;52691.19;5003552;28;20399;-70
2023/09/29 01:46:39;;;;;;;;;;;;;;;-140.72;100.00;52664.81;4985177;28;19945;-70
2023/09/29 01:49:06;;;;;;;;;;;;;;;-140.72;100.00;52711.47;4990159;28;19934;-69
2023/09/29 01:51:31;;;;;;;;;;;;;;;-140.72;100.00;52737.84;4990089;28;20388;-70
2023/09/29 01:53:57;;;;;;;;;;;;;;;-140.72;100.00;52729.75;4993338;28;19922;-70
2023/09/29 01:56:23;;;;;;;;;;;;;;;-140.72;100.00;52748.00;4991293;28;19921;-70
2023/09/29 01:58:48;;;;;;;;;;;;;;;-140.72;100.00;52674.94;4980615;28;19937;-70
2023/09/29 02:01:14;;;;;;;;;;;;;;;-140.72;100.00;52760.19;4989330;28;19933;-70
2023/09/29 02:03:44;;;;;;;;;;;;;;;-140.72;100.00;52636.38;4992358;28;20253;-70
2023/09/29 02:06:09;;;;;;;;;;;;;;;-140.72;100.00;52711.47;4987702;28;20806;-70
2023/09/29 02:08:35;;;;;;;;;;;;;;;-140.72;100.00;52703.34;4987515;28;19945;-70
2023/09/29 02:11:00;;;;;;;;;;;;;;;-140.72;100.00;52713.50;4982412;28;19926;-70
2023/09/29 02:13:25;;;;;;;;;;;;;;;-140.72;100.00;52707.41;4988771;28;19968;-70
2023/09/29 02:15:53;;;;;;;;;;;;;;;-140.72;100.00;52689.16;4991095;28;20064;-70
2023/09/29 02:18:18;;;;;;;;;;;;;;;-140.72;100.00;52711.47;4990484;28;19922;-69
2023/09/29 02:20:46;;;;;;;;;;;;;;;-140.72;100.00;52717.56;4993693;28;19922;-70
2023/09/29 02:23:14;;;;;;;;;;;;;;;-140.72;100.00;52697.28;4988334;28;19922;-70
2023/09/29 02:25:40;;;;;;;;;;;;;;;-140.72;100.00;52685.09;4989654;28;20376;-70
2023/09/29 02:28:06;;;;;;;;;;;;;;;-140.72;100.00;52745.97;4990781;28;19929;-70
2023/09/29 02:30:31;;;;;;;;;;;;;;;-140.72;100.00;52731.75;4989562;28;19926;-70
2023/09/29 02:33:03;;;;;;;;;;;;;;;-140.72;100.00;52679.00;4990651;28;19929;-69
2023/09/29 02:35:28;;;;;;;;;;;;;;;-140.72;100.00;52687.13;4993074;28;20406;-70
2023/09/29 02:37:54;;;;;;;;;;;;;;;-140.72;100.00;52705.38;4985372;28;19918;-70
2023/09/29 02:40:19;;;;;;;;;;;;;;;-140.72;100.00;52691.19;4990242;28;19918;-70
2023/09/29 02:42:49;;;;;;;;;;;;;;;-140.72;100.00;52683.06;5004847;28;20261;-70
2023/09/29 02:45:14;;;;;;;;;;;;;;;-140.72;100.00;52699.31;4988365;28;19922;-70
2023/09/29 02:47:41;;;;;;;;;;;;;;;-140.72;100.00;52711.47;4986054;28;19933;-71
2023/09/29 02:50:07;;;;;;;;;;;;;;;-140.72;100.00;52715.53;4993428;28;19945;-70
2023/09/29 02:52:32;;;;;;;;;;;;;;;-140.72;100.00;52703.34;4990245;28;19918;-70
2023/09/29 02:54:59;;;;;;;;;;;;;;;-140.72;100.00;52739.88;4992621;28;19922;-70
2023/09/29 02:57:24;;;;;;;;;;;;;;;-140.72;100.00;52733.78;4994216;28;19918;-71
2023/09/29 02:59:49;;;;;;;;;;;;;;;-140.72;100.00;52766.25;4989250;28;19922;-71
2023/09/29 03:02:14;;;;;;;;;;;;;;;-140.72;100.00;52748.00;4993160;28;19957;-70
2023/09/29 03:04:40;;;;;;;;;;;;;;;-140.72;100.00;52743.94;4994487;28;19926;-71
2023/09/29 03:07:06;;;;;;;;;;;;;;;-140.72;100.00;52729.75;4992264;28;19930;-71
2023/09/29 03:09:33;;;;;;;;;;;;;;;-140.72;100.00;52760.19;4986850;28;19922;-71
2023/09/29 03:11:59;;;;;;;;;;;;;;;-140.72;100.00;52743.94;4992391;28;20386;-71
2023/09/29 03:14:25;;;;;;;;;;;;;;;-140.72;100.00;52748.00;4994901;28;19922;-69
2023/09/29 03:16:50;;;;;;;;;;;;;;;-140.72;100.00;52697.28;4992173;28;20303;-69
2023/09/29 03:19:15;;;;;;;;;;;;;;;-140.72;100.00;52719.59;4991499;28;20380;-70
2023/09/29 03:21:40;;;;;;;;;;;;;;;-140.72;100.00;52768.28;4988053;28;19980;-70
2023/09/29 03:24:08;;;;;;;;;;;;;;;-140.72;100.00;52727.72;4984201;28;20363;-70
2023/09/29 03:26:33;;;;;;;;;;;;;;;-140.72;100.00;52717.56;4993062;28;19918;-70
2023/09/29 03:28:59;;;;;;;;;;;;;;;-140.72;100.00;52778.44;4993174;28;19940;-70
2023/09/29 03:31:26;;;;;;;;;;;;;;;-140.72;100.00;52768.28;4992177;28;19924;-70
2023/09/29 03:33:54;;;;;;;;;;;;;;;-140.72;100.00;52731.75;4985097;28;19929;-70
2023/09/29 03:36:23;;;;;;;;;;;;;;;-140.72;100.00;52752.06;4990857;28;19930;-70
2023/09/29 03:38:48;;;;;;;;;;;;;;;-140.72;100.00;52788.59;4991801;28;19918;-70
2023/09/29 03:41:14;;;;;;;;;;;;;;;-140.72;100.00;52745.97;4982447;28;19925;-70
2023/09/29 03:43:39;;;;;;;;;;;;;;;-140.72;100.00;52723.66;4994023;28;20004;-70
2023/09/29 03:46:06;;;;;;;;;;;;;;;-140.72;100.00;52741.91;4985476;28;20378;-70
2023/09/29 03:48:31;;;;;;;;;;;;;;;-140.72;100.00;52770.31;4993640;28;19926;-70
2023/09/29 03:50:57;;;;;;;;;;;;;;;-140.72;100.00;52735.81;4995784;28;19920;-71
2023/09/29 03:53:23;;;;;;;;;;;;;;;-140.72;100.00;52758.16;4990710;28;20282;-70
2023/09/29 03:55:48;;;;;;;;;;;;;;;-140.72;100.00;52723.66;5008140;28;20001;-70
2023/09/29 03:58:16;;;;;;;;;;;;;;;-140.72;100.00;52719.59;4995836;28;19918;-70
2023/09/29 04:00:44;;;;;;;;;;;;;;;-140.72;100.00;52697.28;5007270;28;19925;-70
2023/09/29 04:03:09;;;;;;;;;;;;;;;-140.72;100.00;52723.66;4999183;28;19961;-70
2023/09/29 04:05:34;;;;;;;;;;;;;;;-140.72;100.00;52748.00;4996260;28;20345;-70
2023/09/29 04:08:01;;;;;;;;;;;;;;;-140.72;100.00;52735.81;4996117;28;19969;-70
2023/09/29 04:10:26;;;;;;;;;;;;;;;-140.72;100.00;52737.84;4994843;28;20013;-70
2023/09/29 04:12:51;;;;;;;;;;;;;;;-140.72;100.00;52739.88;4996726;28;20025;-70
2023/09/29 04:15:17;;;;;;;;;;;;;;;-140.72;100.00;52762.22;4994857;28;19922;-70
2023/09/29 04:17:42;;;;;;;;;;;;;;;-140.72;100.00;52735.81;4996954;28;19922;-70
2023/09/29 04:20:08;;;;;;;;;;;;;;;-140.72;100.00;52770.31;4997051;28;19921;-70
2023/09/29 04:22:34;;;;;;;;;;;;;;;-140.72;100.00;52723.66;4995817;28;20383;-70
2023/09/29 04:24:59;;;;;;;;;;;;;;;-140.72;100.00;52739.88;4991059;28;19960;-70
2023/09/29 04:27:25;;;;;;;;;;;;;;;-140.72;100.00;52750.03;4997282;28;20021;-70
2023/09/29 04:29:53;;;;;;;;;;;;;;;-140.72;100.00;52772.34;4991646;28;19928;-70
2023/09/29 04:32:18;;;;;;;;;;;;;;;-140.72;100.00;52735.81;4990331;28;19918;-70
2023/09/29 04:34:44;;;;;;;;;;;;;;;-140.72;100.00;52727.72;4995151;28;19922;-70
2023/09/29 04:37:09;;;;;;;;;;;;;;;-140.72;100.00;52719.59;5006283;28;19918;-70
2023/09/29 04:39:34;;;;;;;;;;;;;;;-140.72;100.00;52727.72;5007667;28;19922;-70
2023/09/29 04:42:00;;;;;;;;;;;;;;;-140.72;100.00;52739.88;4995413;28;19922;-70
2023/09/29 04:44:25;;;;;;;;;;;;;;;-140.72;100.00;52739.88;4991597;28;19929;-72
2023/09/29 04:46:50;;;;;;;;;;;;;;;-140.72;100.00;52752.06;4990457;28;20410;-73
2023/09/29 04:49:16;;;;;;;;;;;;;;;-140.72;100.00;52739.88;4996656;28;19922;-72
2023/09/29 04:51:43;;;;;;;;;;;;;;;-140.72;100.00;52752.06;4994440;28;20326;-75
2023/09/29 04:54:35;;;;;;;;;;;;;;;-140.72;100.00;52707.41;4988879;28;19922;-73
2023/09/29 04:57:00;;;;;;;;;;;;;;;-140.72;100.00;52715.53;4996264;28;19927;-75
2023/09/29 04:59:26;;;;;;;;;;;;;;;-140.72;100.00;52745.97;5009043;28;19937;-72
2023/09/29 05:01:51;;;;;;;;;;;;;;;-140.72;100.00;52687.13;4989959;28;20492;-73
2023/09/29 05:04:16;;;;;;;;;;;;;;;-140.72;100.00;52699.31;4995237;28;20335;-71
2023/09/29 05:06:41;;;;;;;;;;;;;;;-140.72;100.00;52727.72;4993300;28;19928;-72
2023/09/29 05:09:07;;;;;;;;;;;;;;;-140.72;100.00;52715.53;4994970;28;20411;-71
2023/09/29 05:11:32;;;;;;;;;;;;;;;-140.72;100.00;52731.75;4996195;28;20008;-71
2023/09/29 05:13:57;;;;;;;;;;;;;;;-140.72;100.00;52715.53;4987225;28;19918;-71
2023/09/29 05:16:22;;;;;;;;;;;;;;;-140.72;100.00;52707.41;4991270;28;19976;-71
2023/09/29 05:18:54;;;;;;;;;;;;;;;-140.72;100.00;52729.75;4991060;28;19922;-71
2023/09/29 05:21:20;;;;;;;;;;;;;;;-140.72;100.00;52685.09;4979057;28;19922;-72
2023/09/29 05:23:45;;;;;;;;;;;;;;;-140.72;100.00;52699.31;4991842;28;19964;-71
2023/09/29 05:26:13;;;;;;;;;;;;;;;-140.72;100.00;52695.25;4992116;28;19926;-72
2023/09/29 05:28:38;;;;;;;;;;;;;;;-140.72;100.00;52713.50;4994879;28;19953;-74
2023/09/29 05:31:20;;;;;;;;;;;;;;;-140.72;100.00;52748.00;4993015;28;19968;-74
2023/09/29 05:33:45;;;;;;;;;;;;;;;-140.72;100.00;52707.41;4990349;28;20368;-71
2023/09/29 05:36:11;;;;;;;;;;;;;;;-140.72;100.00;52711.47;4987989;28;19965;-71
2023/09/29 05:38:36;;;;;;;;;;;;;;;-140.72;100.00;52731.75;4990457;28;19976;-72
2023/09/29 05:41:01;;;;;;;;;;;;;;;-140.72;100.00;52705.38;4994153;28;20296;-71
2023/09/29 05:43:41;;;;;;;;;;;;;;;-140.72;100.00;52709.44;4993173;28;19926;-71
2023/09/29 05:46:06;;;;;;;;;;;;;;;-140.72;100.00;52674.94;4992745;28;20005;-71
2023/09/29 05:48:31;;;;;;;;;;;;;;;-140.72;100.00;52707.41;4993228;28;20447;-71
2023/09/29 05:50:57;;;;;;;;;;;;;;;-140.72;100.00;52727.72;4992241;28;19921;-71
2023/09/29 05:53:22;;;;;;;;;;;;;;;-140.72;100.00;52707.41;4993931;28;19950;-72
2023/09/29 05:55:48;;;;;;;;;;;;;;;-140.72;100.00;52721.63;4993748;28;19967;-71
2023/09/29 05:58:13;;;;;;;;;;;;;;;-140.72;100.00;52711.47;5009453;28;19918;-71
2023/09/29 06:00:39;;;;;;;;;;;;;;;-140.72;100.00;52717.56;4993793;28;19922;-71
2023/09/29 06:03:04;;;;;;;;;;;;;;;-140.72;100.00;52662.78;4995565;28;19917;-71
2023/09/29 06:05:29;;;;;;;;;;;;;;;-140.72;100.00;52721.63;4988707;28;19926;-71
2023/09/29 06:07:57;;;;;;;;;;;;;;;-140.72;100.00;52735.81;4990337;28;20372;-72
2023/09/29 06:10:23;;;;;;;;;;;;;;;-140.72;100.00;52707.41;4988946;28;19922;-71
2023/09/29 06:12:48;;;;;;;;;;;;;;;-140.72;100.00;52707.41;4989608;28;19921;-71
2023/09/29 06:15:13;;;;;;;;;;;;;;;-140.72;100.00;52693.22;4982589;28;19922;-71
2023/09/29 06:17:39;;;;;;;;;;;;;;;-140.72;100.00;52681.03;4993013;28;19968;-72
2023/09/29 06:20:04;;;;;;;;;;;;;;;-140.72;100.00;52668.84;4988888;28;19921;-72
2023/09/29 06:22:30;;;;;;;;;;;;;;;-140.72;100.00;52683.06;4990232;28;19937;-70
2023/09/29 06:24:55;;;;;;;;;;;;;;;-140.72;100.00;52721.63;4987338;28;20387;-70
2023/09/29 06:27:20;;;;;;;;;;;;;;;-140.72;100.00;52711.47;4993746;28;19932;-71
2023/09/29 06:29:54;;;;;;;;;;;;;;;-140.72;100.00;52693.22;4992384;28;20384;-70
2023/09/29 06:32:19;;;;;;;;;;;;;;;-140.72;100.00;52670.88;4986281;28;19964;-70
2023/09/29 06:35:02;;;;;;;;;;;;;;;-140.72;100.00;52693.22;4991075;28;19918;-72
2023/09/29 06:37:28;;;;;;;;;;;;;;;-140.72;100.00;52717.56;5001370;28;19918;-72
2023/09/29 06:39:53;;;;;;;;;;;;;;;-140.72;100.00;52652.63;4993630;28;20431;-72
2023/09/29 06:42:18;;;;;;;;;;;;;;;-140.72;100.00;52687.13;4986355;28;19968;-72
2023/09/29 06:44:44;;;;;;;;;;;;;;;-140.72;100.00;52660.75;4989275;28;20407;-71
2023/09/29 06:47:09;;;;;;;;;;;;;;;-140.72;100.00;52689.16;4996693;28;19927;-71
2023/09/29 06:49:34;;;;;;;;;;;;;;;-140.72;100.00;52703.34;4990625;28;19984;-71
2023/09/29 06:51:59;;;;;;;;;;;;;;;-140.72;100.00;52687.13;4988539;28;19922;-71
2023/09/29 06:54:25;;;;;;;;;;;;;;;-140.72;100.00;52685.09;4985384;28;19953;-71
2023/09/29 06:56:50;;;;;;;;;;;;;;;-140.72;100.00;52679.00;4990659;28;20376;-71
2023/09/29 06:59:15;;;;;;;;;;;;;;;-140.72;100.00;52725.69;4983833;28;19981;-73
2023/09/29 07:01:41;;;;;;;;;;;;;;;-140.72;100.00;52703.34;4982658;28;19922;-74
2023/09/29 07:04:06;;;;;;;;;;;;;;;-140.72;100.00;52687.13;4984584;28;19922;-71
2023/09/29 07:06:31;;;;;;;;;;;;;;;-140.72;100.00;52695.25;4991817;28;20360;-72
2023/09/29 07:08:57;;;;;;;;;;;;;;;-140.72;100.00;52687.13;4992904;28;20000;-72
2023/09/29 07:11:22;;;;;;;;;;;;;;;-140.72;100.00;52679.00;4992000;28;19925;-72
2023/09/29 07:13:48;;;;;;;;;;;;;;;-140.72;100.00;52658.72;5006781;28;19921;-71
2023/09/29 07:16:13;;;;;;;;;;;;;;;-140.72;100.00;52646.53;4991417;28;20021;-71
2023/09/29 07:18:41;;;;;;;;;;;;;;;-140.72;100.00;52695.25;4991845;28;20006;-71
2023/09/29 07:21:06;;;;;;;;;;;;;;;-140.72;100.00;52683.06;4997272;28;19921;-73
2023/09/29 07:23:33;;;;;;;;;;;;;;;-140.72;100.00;52737.84;4990845;28;20254;-73
2023/09/29 07:25:59;;;;;;;;;;;;;;;-140.72;100.00;52666.84;5002492;28;20291;-72
2023/09/29 07:28:24;;;;;;;;;;;;;;;-140.72;100.00;52693.22;4988454;28;19921;-76
2023/09/29 07:30:52;;;;;;;;;;;;;;;-140.72;100.00;52699.31;5004405;28;19921;-76
2023/09/29 07:33:17;;;;;;;;;;;;;;;-140.72;100.00;52723.66;4991839;28;19968;-73
2023/09/29 07:35:46;;;;;;;;;;;;;;;-140.72;100.00;52642.47;4985452;28;19929;-71
2023/09/29 07:38:11;;;;;;;;;;;;;;;-140.72;100.00;52689.16;4992445;28;19930;-74
2023/09/29 07:40:36;;;;;;;;;;;;;;;-140.72;100.00;52676.97;4989083;28;19929;-72
2023/09/29 07:43:02;;;;;;;;;;;;;;;-140.72;100.00;52713.50;4983725;28;20377;-70
2023/09/29 07:45:27;;;;;;;;;;;;;;;-140.72;100.00;52662.78;4985019;28;19991;-71
2023/09/29 07:47:53;;;;;;;;;;;;;;;-140.72;100.00;52650.59;4994062;28;19925;-71
2023/09/29 07:50:19;;;;;;;;;;;;;;;-140.72;100.00;52660.75;4992400;28;20419;-73
2023/09/29 07:52:44;;;;;;;;;;;;;;;-140.72;100.00;52691.19;4988338;28;19921;-73
2023/09/29 07:55:10;;;;;;;;;;;;;;;-140.72;100.00;52664.81;4986888;28;19932;-73
2023/09/29 07:57:36;;;;;;;;;;;;;;;-140.72;100.00;52660.75;5003934;28;20373;-75
2023/09/29 08:00:04;;;;;;;;;;;;;;;-140.72;100.00;52650.59;4992110;28;19928;-76
2023/09/29 08:02:30;;;;;;;;;;;;;;;-140.72;100.00;52656.69;4987036;28;19930;-74
2023/09/29 08:04:55;;;;;;;;;;;;;;;-140.72;100.00;52630.31;5004245;28;19922;-73
2023/09/29 08:07:20;;;;;;;;;;;;;;;-140.72;100.00;52632.34;4987738;28;19941;-81
2023/09/29 08:09:48;;;;;;;;;;;;;;;-140.72;100.00;52642.47;4990102;28;19961;-72
2023/09/29 08:12:13;;;;;;;;;;;;;;;-140.72;100.00;52632.34;4989808;28;19932;-72
2023/09/29 08:14:38;;;;;;;;;;;;;;;-140.72;100.00;52630.31;5003232;28;19952;-73
2023/09/29 08:17:04;;;;;;;;;;;;;;;-140.72;100.00;52601.91;4991829;28;19922;-72
2023/09/29 08:19:29;;;;;;;;;;;;;;;-140.72;100.00;52622.19;4987872;28;19969;-76
2023/09/29 08:21:55;;;;;;;;;;;;;;;-140.72;100.00;52620.16;4989371;28;19922;-72
2023/09/29 08:24:20;;;;;;;;;;;;;;;-140.72;100.00;52626.25;4988722;28;19922;-71
2023/09/29 08:26:45;;;;;;;;;;;;;;;-140.72;100.00;52593.78;4989782;28;19922;-72
2023/09/29 08:29:15;;;;;;;;;;;;;;;-140.72;100.00;52605.94;4984140;28;19922;-72
2023/09/29 08:31:41;;;;;;;;;;;;;;;-140.72;100.00;52575.50;4989416;28;19948;-72
2023/09/29 08:34:06;;;;;;;;;;;;;;;-140.72;100.00;52589.72;4987367;28;19922;-73
2023/09/29 08:36:31;;;;;;;;;;;;;;;-140.72;100.00;52557.25;4987990;28;19929;-72
2023/09/29 08:38:57;;;;;;;;;;;;;;;-140.72;100.00;52605.94;4995962;28;19922;-73
2023/09/29 08:41:25;;;;;;;;;;;;;;;-140.72;100.00;52585.66;4994146;28;19961;-73
2023/09/29 08:43:51;;;;;;;;;;;;;;;-140.72;100.00;52551.16;4992811;28;19983;-74
2023/09/29 08:46:18;;;;;;;;;;;;;;;-140.72;100.00;52532.91;4993888;28;20376;-73
2023/09/29 08:48:45;;;;;;;;;;;;;;;-140.72;100.00;52601.91;4991775;28;19921;-75
2023/09/29 08:51:12;;;;;;;;;;;;;;;-140.72;100.00;52565.38;4995413;28;19926;-75
2023/09/29 08:53:39;;;;;;;;;;;;;;;-140.72;100.00;52524.78;4993983;28;19968;-77
2023/09/29 08:56:11;;;;;;;;;;;;;;;-140.72;100.00;52585.66;4996682;28;19929;-71
2023/09/29 08:58:36;;;;;;;;;;;;;;;-140.72;100.00;52583.63;4992273;28;19925;-73
2023/09/29 09:01:01;;;;;;;;;;;;;;;-140.72;100.00;52585.66;4992319;28;20331;-74
2023/09/29 09:03:27;;;;;;;;;;;;;;;-140.72;100.00;52605.94;4991692;28;19922;-73
2023/09/29 09:05:55;;;;;;;;;;;;;;;-140.72;100.00;52628.28;4995073;28;19922;-75
2023/09/29 09:08:20;;;;;;;;;;;;;;;-140.72;100.00;52597.84;4992493;28;20016;-72
2023/09/29 09:10:45;;;;;;;;;;;;;;;-140.72;100.00;52620.16;4993190;28;19928;-74
2023/09/29 09:13:11;;;;;;;;;;;;;;;-140.72;100.00;52614.06;4991911;28;20024;-74
2023/09/29 09:15:37;;;;;;;;;;;;;;;-140.72;100.00;52628.28;4991703;28;20295;-73
2023/09/29 09:18:03;;;;;;;;;;;;;;;-140.72;100.00;52630.31;4992503;28;19933;-73
2023/09/29 09:20:29;;;;;;;;;;;;;;;-140.72;100.00;52650.59;5008138;28;20377;-73
2023/09/29 09:22:58;;;;;;;;;;;;;;;-140.72;100.00;52642.47;4992292;28;19922;-74
2023/09/29 09:25:35;;;;;;;;;;;;;;;-140.72;100.00;52658.72;4989568;28;19922;-73
2023/09/29 09:28:00;;;;;;;;;;;;;;;-140.72;100.00;52642.47;5001730;28;20328;-73
2023/09/29 09:30:26;;;;;;;;;;;;;;;-140.72;100.00;52630.31;4989178;28;19922;-73
2023/09/29 09:32:51;;;;;;;;;;;;;;;-140.72;100.00;52648.56;4994846;28;20343;-74
2023/09/29 09:35:26;;;;;;;;;;;;;;;-140.72;100.00;52662.78;4992204;28;19957;-73
2023/09/29 09:37:52;;;;;;;;;;;;;;;-140.72;100.00;52612.03;4989340;28;19922;-74
2023/09/29 09:40:18;;;;;;;;;;;;;;;-140.72;100.00;52618.13;4990236;28;19928;-73
2023/09/29 09:42:45;;;;;;;;;;;;;;;-140.72;100.00;52626.25;4987852;28;19969;-74
2023/09/29 09:45:11;;;;;;;;;;;;;;;-140.72;100.00;52630.31;4986809;28;19932;-74
2023/09/29 09:47:37;;;;;;;;;;;;;;;-140.72;100.00;52618.13;4990747;28;19933;-74
2023/09/29 09:50:06;;;;;;;;;;;;;;;-140.72;100.00;52612.03;4992754;28;19922;-74
2023/09/29 09:52:31;;;;;;;;;;;;;;;-140.72;100.00;52632.34;4993590;28;19965;-74
2023/09/29 09:54:58;;;;;;;;;;;;;;;-140.72;100.00;52622.19;4992091;28;19964;-74
2023/09/29 09:57:37;;;;;;;;;;;;;;;-140.72;100.00;52662.78;4987829;28;20030;-77
2023/09/29 10:00:06;;;;;;;;;;;;;;;-140.72;100.00;52650.59;4993244;28;20376;-78
2023/09/29 10:02:33;;;;;;;;;;;;;;;-140.72;100.00;52668.84;5004713;28;19922;-77
2023/09/29 10:11:22;;;;;;;;;;;;;;;-140.72;100.00;52676.97;4976931;28;19980;-74
2023/09/29 10:13:49;;;;;;;;;;;;;;;-140.72;100.00;52650.59;4984419;28;19922;-73
2023/09/29 10:16:22;;;;;;;;;;;;;;;-140.72;100.00;52662.78;5021417;28;19928;-74
2023/09/29 10:18:54;;;;;;;;;;;;;;;-140.72;100.00;52670.88;4987806;28;20304;-73
2023/09/29 10:21:19;;;;;;;;;;;;;;;-140.72;100.00;52666.84;4984627;28;19977;-76
2023/09/29 10:23:45;;;;;;;;;;;;;;;-140.72;100.00;52713.50;4995637;28;19922;-73
2023/09/29 10:26:11;;;;;;;;;;;;;;;-140.72;100.00;52709.44;4988835;28;19926;-73
2023/09/29 10:28:41;;;;;;;;;;;;;;;-140.72;100.00;52711.47;4994154;28;19962;-77
2023/09/29 10:31:07;;;;;;;;;;;;;;;-140.72;100.00;52711.47;4990355;28;19922;-73
2023/09/29 10:33:44;;;;;;;;;;;;;;;-140.72;100.00;52679.00;4999002;28;19940;-73
2023/09/29 10:36:09;;;;;;;;;;;;;;;-140.72;100.00;52699.31;4994763;28;19925;-77
2023/09/29 10:38:35;;;;;;;;;;;;;;;-140.72;100.00;52703.34;5010157;28;19922;-80
2023/09/29 10:41:03;;;;;;;;;;;;;;;-140.72;100.00;52719.59;4991165;28;19932;-75
2023/09/29 10:43:28;;;;;;;;;;;;;;;-140.72;100.00;52715.53;4995671;28;19925;-77
2023/09/29 10:46:02;;;;;;;;;;;;;;;-140.72;100.00;52666.84;4992990;28;20384;-74
2023/09/29 10:48:27;;;;;;;;;;;;;;;-140.72;100.00;52662.78;5009481;28;19921;-74
2023/09/29 10:50:53;;;;;;;;;;;;;;;-140.72;100.00;52699.31;4988195;28;20399;-74
2023/09/29 10:53:21;;;;;;;;;;;;;;;-140.72;100.00;52668.84;4988465;28;20422;-75
2023/09/29 10:55:54;;;;;;;;;;;;;;;-140.72;100.00;52620.16;4995114;28;20266;-75
2023/09/29 10:58:20;;;;;;;;;;;;;;;-140.72;100.00;52634.38;4988810;28;19929;-78
2023/09/29 11:00:55;;;;;;;;;;;;;;;-140.72;100.00;52644.50;4991774;28;19923;-74
2023/09/29 11:03:21;;;;;;;;;;;;;;;-140.72;100.00;52632.34;4992420;28;19960;-77
2023/09/29 11:05:48;;;;;;;;;;;;;;;-140.72;100.00;52638.41;4999077;28;19924;-73
2023/09/29 11:08:14;;;;;;;;;;;;;;;-140.72;100.00;52668.84;4989198;28;19972;-75
2023/09/29 11:10:39;;;;;;;;;;;;;;;-140.72;100.00;52638.41;5004771;28;20376;-75
2023/09/29 11:13:15;;;;;;;;;;;;;;;-140.72;100.00;52656.69;4994218;28;19940;-77
2023/09/29 11:15:41;;;;;;;;;;;;;;;-140.72;100.00;52662.78;4982072;28;19933;-79
2023/09/29 11:24:18;;;;;;;;;;;;;;;-140.72;100.00;52662.78;4988124;28;19921;-75
2023/09/29 11:27:00;;;;;;;;;;;;;;;-140.72;100.00;52630.31;4986777;28;20016;-74
2023/09/29 11:29:34;;;;;;;;;;;;;;;-140.72;100.00;52614.06;4994551;28;20372;-74
2023/09/29 11:32:20;;;;;;;;;;;;;;;-140.72;100.00;52561.31;4995691;28;19922;-75
2023/09/29 11:34:49;;;;;;;;;;;;;;;-140.72;100.00;52610.00;5002551;28;19929;-76
2023/09/29 11:37:14;;;;;;;;;;;;;;;-140.72;100.00;52622.19;4990327;28;20001;-75
2023/09/29 11:39:40;;;;;;;;;;;;;;;-140.72;100.00;52622.19;4992823;28;20025;-73
2023/09/29 11:42:05;;;;;;;;;;;;;;;-140.72;100.00;52634.38;4989999;28;19938;-73
2023/09/29 11:44:30;;;;;;;;;;;;;;;-140.72;100.00;52634.38;4990812;28;20450;-75
2023/09/29 11:46:56;;;;;;;;;;;;;;;-140.72;100.00;52622.19;4990224;28;19922;-74
2023/09/29 11:49:27;;;;;;;;;;;;;;;-140.72;100.00;52652.63;4989851;28;19918;-75
2023/09/29 11:52:03;;;;;;;;;;;;;;;-140.72;100.00;52638.41;4984576;28;19921;-74
2023/09/29 11:54:28;;;;;;;;;;;;;;;-140.72;100.00;52644.50;4990619;28;20396;-75
2023/09/29 11:56:53;;;;;;;;;;;;;;;-140.72;100.00;52626.25;4992559;28;19921;-77
2023/09/29 11:59:19;;;;;;;;;;;;;;;-140.72;100.00;52547.09;4981347;28;19918;-76
2023/09/29 12:01:46;;;;;;;;;;;;;;;-140.72;100.00;52530.88;4986000;28;20368;-77
2023/09/29 12:04:12;;;;;;;;;;;;;;;-140.72;100.00;52516.66;4993810;28;19922;-78
2023/09/29 12:06:39;;;;;;;;;;;;;;;-140.72;100.00;52346.22;5006043;28;20029;-76
2023/09/29 12:09:12;;;;;;;;;;;;;;;-140.72;100.00;52376.66;4990926;28;19922;-75
2023/09/29 12:11:38;;;;;;;;;;;;;;;-140.72;100.00;52374.63;4987784;28;19922;-76
2023/09/29 12:14:03;;;;;;;;;;;;;;;-140.72;100.00;52411.16;4996296;28;19936;-78
2023/09/29 12:16:29;;;;;;;;;;;;;;;-140.72;100.00;52465.94;5004988;28;20353;-76
2023/09/29 12:18:55;;;;;;;;;;;;;;;-140.72;100.00;52518.69;5001412;28;20299;-76
2023/09/29 12:21:21;;;;;;;;;;;;;;;-140.72;100.00;52536.97;4989238;28;19929;-77
2023/09/29 12:23:54;;;;;;;;;;;;;;;-140.72;100.00;52571.47;4990568;28;20376;-78
2023/09/29 12:26:20;;;;;;;;;;;;;;;-140.72;100.00;52575.50;4996327;28;20080;-76
2023/09/29 12:28:47;;;;;;;;;;;;;;;-140.72;100.00;52581.59;4986564;28;19957;-77
2023/09/29 12:31:18;;;;;;;;;;;;;;;-140.72;100.00;52553.19;4997488;28;19969;-77